Time;durP1;ratioP1;P1;durP2;ratioP2;P2;SDS_P1;SDS_P2;PMS_P1;PMS_P2;Temp;Humidity;BMP_temperature;BMP_pressure;BME280_temperature;BME280_humidity;BME280_pressure;Samples;Min_cycle;Max_cycle;Signal;HPM_P1;HPM_P2
2022/08/16 00:00:33;;;;;;;2.75;1.58;;;15.50;99.90;;;;;;5115413;28;20069;-77
2022/08/16 00:03:00;;;;;;;6.18;3.33;;;15.40;99.90;;;;;;5115439;28;20430;-77
2022/08/16 00:05:27;;;;;;;5.90;4.45;;;15.30;99.90;;;;;;5115433;28;20107;-78
2022/08/16 00:07:53;;;;;;;15.60;6.72;;;15.30;99.90;;;;;;5097026;28;20020;-77
2022/08/16 00:10:21;;;;;;;2.15;1.45;;;15.30;99.90;;;;;;5115824;28;20577;-75
2022/08/16 00:12:47;;;;;;;1.15;1.05;;;15.30;99.90;;;;;;5116154;28;20042;-78
2022/08/16 00:15:18;;;;;;;1.70;1.60;;;15.30;99.90;;;;;;5097470;28;20375;-76
2022/08/16 00:17:44;;;;;;;0.55;0.55;;;15.30;99.90;;;;;;5097353;28;20372;-76
2022/08/16 00:20:10;;;;;;;3.22;2.08;;;15.20;99.90;;;;;;5096881;28;20115;-76
2022/08/16 00:22:38;;;;;;;0.85;0.85;;;15.10;99.90;;;;;;5115109;28;20487;-76
2022/08/16 00:25:07;;;;;;;0.75;0.75;;;15.00;99.90;;;;;;5096839;28;20384;-75
2022/08/16 00:27:33;;;;;;;1.27;0.57;;;15.00;99.90;;;;;;5115434;28;20027;-77
2022/08/16 00:29:58;;;;;;;1.08;0.80;;;14.90;99.90;;;;;;5115299;28;20048;-75
2022/08/16 00:32:24;;;;;;;1.48;1.13;;;14.90;99.90;;;;;;5115259;28;20028;-76
2022/08/16 00:34:50;;;;;;;2.83;1.00;;;14.80;99.90;;;;;;5115443;28;20027;-75
2022/08/16 00:37:17;;;;;;;1.35;1.25;;;14.80;99.90;;;;;;5115068;28;20023;-76
2022/08/16 00:39:42;;;;;;;1.35;1.08;;;14.80;99.90;;;;;;5114767;28;20022;-77
2022/08/16 00:42:08;;;;;;;2.00;1.65;;;14.80;99.90;;;;;;5115268;28;20028;-77
2022/08/16 00:44:35;;;;;;;0.63;0.63;;;14.70;99.90;;;;;;5096752;28;20019;-76
2022/08/16 00:47:11;;;;;;;6.03;2.05;;;14.60;99.90;;;;;;5115005;28;20024;-76
2022/08/16 00:49:37;;;;;;;0.50;0.50;;;14.60;99.90;;;;;;5114713;28;20487;-78
2022/08/16 00:52:03;;;;;;;1.58;0.82;;;14.60;99.90;;;;;;5114923;28;20519;-77
2022/08/16 00:54:30;;;;;;;2.75;1.27;;;14.70;99.90;;;;;;5115236;28;20546;-77
2022/08/16 00:57:01;;;;;;;2.58;1.38;;;14.60;99.90;;;;;;5114868;28;20488;-77
2022/08/16 00:59:30;;;;;;;1.33;1.10;;;14.60;99.90;;;;;;5096812;28;20024;-77
2022/08/16 01:01:56;;;;;;;1.35;0.93;;;14.50;99.90;;;;;;5114779;28;20015;-75
2022/08/16 01:04:25;;;;;;;0.40;0.40;;;14.50;99.90;;;;;;5096405;28;20487;-77
2022/08/16 01:06:51;;;;;;;1.15;1.15;;;14.50;99.90;;;;;;5114509;28;20072;-76
2022/08/16 01:09:18;;;;;;;1.27;1.00;;;14.40;99.90;;;;;;5116450;28;20024;-78
2022/08/16 01:11:44;;;;;;;1.13;0.85;;;14.40;99.90;;;;;;5115606;28;20380;-78
2022/08/16 01:14:18;;;;;;;0.63;0.63;;;14.40;99.90;;;;;;5114916;28;20035;-76
2022/08/16 01:16:45;;;;;;;3.05;1.30;;;14.40;99.90;;;;;;5114654;28;20121;-77
2022/08/16 01:19:23;;;;;;;1.10;0.98;;;14.30;99.90;;;;;;5116170;28;20020;-82
2022/08/16 01:21:53;;;;;;;1.52;0.88;;;14.20;99.90;;;;;;5120384;28;20483;-79
2022/08/16 01:24:35;;;;;;;1.60;0.90;;;14.20;99.90;;;;;;5098924;28;20028;-79
2022/08/16 01:27:24;;;;;;;0.50;0.50;;;14.30;99.90;;;;;;5097975;28;20028;-76
2022/08/16 01:30:12;;;;;;;0.63;0.63;;;14.30;99.90;;;;;;5116363;28;20464;-79
2022/08/16 01:32:41;;;;;;;2.65;0.90;;;14.30;99.90;;;;;;5098721;28;20059;-75
2022/08/16 01:35:42;;;;;;;1.55;1.45;;;14.30;99.90;;;;;;5095916;28;20027;-75
2022/08/16 01:38:20;;;;;;;0.77;0.77;;;14.20;99.90;;;;;;5082504;28;20732;-75
2022/08/16 01:40:46;;;;;;;0.52;0.52;;;14.10;99.90;;;;;;5095774;28;20380;-75
2022/08/16 01:43:12;;;;;;;1.15;0.88;;;14.10;99.90;;;;;;5113896;28;20031;-75
2022/08/16 01:45:38;;;;;;;2.00;1.90;;;14.00;99.90;;;;;;5095694;28;20020;-75
2022/08/16 01:48:04;;;;;;;2.25;1.73;;;14.00;99.90;;;;;;5114201;28;20023;-76
2022/08/16 01:50:30;;;;;;;1.15;1.15;;;14.00;99.90;;;;;;5114183;28;20361;-75
2022/08/16 01:52:56;;;;;;;1.27;1.27;;;14.00;99.90;;;;;;5113611;28;20474;-75
2022/08/16 01:55:23;;;;;;;1.27;1.20;;;14.00;99.90;;;;;;5095625;28;20480;-75
2022/08/16 01:57:49;;;;;;;0.70;0.70;;;13.90;99.90;;;;;;5113841;28;20051;-75
2022/08/16 02:00:16;;;;;;;1.90;1.23;;;13.90;99.90;;;;;;5113967;28;20020;-75
2022/08/16 02:02:43;;;;;;;0.80;0.80;;;13.90;99.90;;;;;;5099681;28;20027;-78
2022/08/16 02:05:10;;;;;;;0.60;0.60;;;13.90;99.90;;;;;;5118468;28;20114;-78
2022/08/16 02:07:37;;;;;;;1.00;0.73;;;13.80;99.90;;;;;;5115067;28;20016;-76
2022/08/16 02:10:08;;;;;;;3.80;1.20;;;13.80;99.90;;;;;;5113784;28;20490;-76
2022/08/16 02:12:34;;;;;;;1.45;1.35;;;13.70;99.90;;;;;;5113433;28;20031;-76
2022/08/16 02:15:00;;;;;;;2.42;0.90;;;13.70;99.90;;;;;;5113747;28;20506;-75
2022/08/16 02:17:26;;;;;;;1.05;0.90;;;13.70;99.90;;;;;;5116415;28;20464;-79
2022/08/16 02:19:52;;;;;;;1.55;0.57;;;13.70;99.90;;;;;;5102051;28;20118;-78
2022/08/16 02:22:22;;;;;;;1.20;1.02;;;13.70;99.90;;;;;;5120560;28;20051;-77
2022/08/16 02:24:48;;;;;;;0.88;0.88;;;13.70;99.90;;;;;;5119810;28;20383;-78
2022/08/16 02:27:14;;;;;;;0.75;0.63;;;13.70;99.90;;;;;;5118957;28;20543;-78
2022/08/16 02:29:41;;;;;;;1.38;1.17;;;13.60;99.90;;;;;;5119402;28;20059;-77
2022/08/16 02:32:09;;;;;;;2.28;1.00;;;13.60;99.90;;;;;;5120216;28;20020;-79
2022/08/16 02:34:34;;;;;;;0.57;0.57;;;13.70;99.90;;;;;;5120117;28;20488;-75
2022/08/16 02:37:01;;;;;;;0.98;0.98;;;13.60;99.90;;;;;;5100778;28;20035;-75
2022/08/16 02:39:27;;;;;;;1.20;1.00;;;13.60;99.90;;;;;;5099641;28;20437;-80
2022/08/16 02:41:52;;;;;;;1.02;1.02;;;13.60;99.90;;;;;;5117536;28;20044;-79
2022/08/16 02:44:19;;;;;;;0.82;0.80;;;13.60;99.90;;;;;;5117285;28;20064;-80
2022/08/16 02:46:45;;;;;;;2.38;0.77;;;13.60;99.90;;;;;;5117167;28;20047;-80
2022/08/16 02:49:11;;;;;;;1.20;1.00;;;13.70;99.90;;;;;;5118455;28;20024;-78
2022/08/16 02:51:38;;;;;;;0.57;0.57;;;13.60;99.90;;;;;;5117833;28;20015;-79
2022/08/16 02:54:05;;;;;;;1.05;0.98;;;13.60;99.90;;;;;;5116879;28;20120;-78
2022/08/16 02:56:32;;;;;;;0.55;0.55;;;13.60;99.90;;;;;;5117130;28;20050;-76
2022/08/16 02:58:58;;;;;;;0.75;0.75;;;13.60;99.90;;;;;;5117119;28;20024;-76
2022/08/16 03:01:26;;;;;;;1.00;1.00;;;13.60;99.90;;;;;;5117054;28;20026;-77
2022/08/16 03:03:53;;;;;;;1.33;0.88;;;13.60;99.90;;;;;;5116919;28;20077;-78
2022/08/16 03:06:20;;;;;;;1.65;1.55;;;13.70;99.90;;;;;;5117143;28;20019;-80
2022/08/16 03:08:47;;;;;;;0.73;0.73;;;13.60;99.90;;;;;;5099064;28;20023;-78
2022/08/16 03:11:12;;;;;;;1.58;0.75;;;13.60;99.90;;;;;;5119557;28;20020;-76
2022/08/16 03:13:39;;;;;;;1.95;1.63;;;13.60;99.90;;;;;;5120034;28;20114;-79
2022/08/16 03:16:05;;;;;;;1.08;1.08;;;13.60;99.90;;;;;;5101062;28;20047;-79
2022/08/16 03:18:31;;;;;;;1.00;1.00;;;13.60;99.90;;;;;;5117332;28;20471;-80
2022/08/16 03:21:00;;;;;;;3.03;1.70;;;13.50;99.90;;;;;;5101461;28;20024;-77
2022/08/16 03:23:26;;;;;;;1.60;1.50;;;13.60;99.90;;;;;;5119155;28;20050;-78
2022/08/16 03:25:51;;;;;;;1.92;1.83;;;13.50;99.90;;;;;;5100270;28;20468;-79
2022/08/16 03:28:17;;;;;;;2.25;1.45;;;13.50;99.90;;;;;;5117425;28;20031;-81
2022/08/16 03:30:43;;;;;;;2.00;1.05;;;13.50;99.90;;;;;;5117364;28;20024;-79
2022/08/16 03:33:09;;;;;;;0.95;0.95;;;13.50;99.90;;;;;;5120829;28;20077;-78
2022/08/16 03:35:37;;;;;;;0.98;0.98;;;13.40;99.90;;;;;;5119345;28;20019;-78
2022/08/16 03:38:06;;;;;;;1.52;1.30;;;13.50;99.90;;;;;;5119656;28;20098;-75
2022/08/16 03:40:34;;;;;;;1.75;1.58;;;13.40;99.90;;;;;;5118723;28;20027;-78
2022/08/16 03:43:06;;;;;;;1.42;1.15;;;13.40;99.90;;;;;;5099580;28;20059;-79
2022/08/16 03:45:33;;;;;;;1.08;0.80;;;13.30;99.90;;;;;;5116816;28;20024;-79
2022/08/16 03:48:01;;;;;;;2.90;2.20;;;13.30;99.90;;;;;;5116100;28;20124;-75
2022/08/16 03:50:27;;;;;;;3.20;1.08;;;13.30;99.90;;;;;;5117012;28;20023;-76
2022/08/16 03:52:53;;;;;;;1.33;1.08;;;13.30;99.90;;;;;;5119562;28;20043;-76
2022/08/16 03:55:19;;;;;;;1.50;1.40;;;13.30;99.90;;;;;;5098678;28;20110;-76
2022/08/16 03:57:47;;;;;;;1.50;0.77;;;13.20;99.90;;;;;;5116308;28;20452;-77
2022/08/16 04:00:17;;;;;;;0.75;0.75;;;13.20;99.90;;;;;;5115889;28;20068;-75
2022/08/16 04:02:44;;;;;;;1.65;1.17;;;13.20;99.90;;;;;;5115847;28;20051;-75
2022/08/16 04:05:12;;;;;;;2.50;0.90;;;14.00;99.90;;;;;;5115971;28;20038;-75
2022/08/16 04:07:38;;;;;;;0.90;0.90;;;13.30;99.90;;;;;;5116096;28;20020;-76
2022/08/16 04:10:06;;;;;;;1.20;0.93;;;13.20;99.90;;;;;;5116718;28;20422;-77
2022/08/16 04:12:31;;;;;;;0.82;0.82;;;13.20;99.90;;;;;;5116164;28;20117;-76
2022/08/16 04:14:57;;;;;;;1.35;1.23;;;13.20;99.90;;;;;;5116102;28;20368;-76
2022/08/16 04:17:23;;;;;;;3.25;1.70;;;13.20;99.90;;;;;;5115854;28;20023;-78
2022/08/16 04:19:49;;;;;;;1.50;1.40;;;13.10;99.90;;;;;;5116107;28;20032;-77
2022/08/16 04:22:15;;;;;;;1.50;0.80;;;13.10;99.90;;;;;;5097462;28;20027;-75
2022/08/16 04:24:41;;;;;;;1.67;0.70;;;13.10;99.90;;;;;;5115414;28;20051;-76
2022/08/16 04:27:07;;;;;;;3.05;1.50;;;13.20;99.90;;;;;;5097315;28;20062;-76
2022/08/16 04:29:33;;;;;;;0.63;0.63;;;;;;;;;;5115561;28;20468;-75
2022/08/16 04:31:59;;;;;;;1.23;1.10;;;13.10;99.90;;;;;;5096967;28;20051;-77
2022/08/16 04:34:31;;;;;;;1.60;1.10;;;13.10;99.90;;;;;;5115283;28;20491;-77
2022/08/16 04:36:57;;;;;;;2.08;1.98;;;13.10;99.90;;;;;;5096904;28;20054;-77
2022/08/16 04:39:25;;;;;;;1.95;1.45;;;13.20;99.90;;;;;;5114362;28;20019;-77
2022/08/16 04:41:51;;;;;;;2.30;1.23;;;13.20;99.90;;;;;;5115357;28;20023;-75
2022/08/16 04:44:17;;;;;;;2.05;1.10;;;13.20;99.90;;;;;;5115141;28;20024;-76
2022/08/16 04:46:43;;;;;;;1.17;0.95;;;13.20;99.90;;;;;;5115199;28;20023;-77
2022/08/16 04:49:10;;;;;;;2.72;2.50;;;13.20;99.90;;;;;;5114994;28;20072;-77
2022/08/16 04:51:36;;;;;;;1.27;0.88;;;13.20;99.90;;;;;;5096566;28;20023;-77
2022/08/16 04:54:03;;;;;;;1.33;1.23;;;13.20;99.90;;;;;;5114703;28;20044;-77
2022/08/16 04:56:28;;;;;;;2.17;1.80;;;13.20;99.90;;;;;;5115169;28;20518;-77
2022/08/16 04:58:54;;;;;;;2.00;1.55;;;13.20;99.90;;;;;;5096534;28;20028;-77
2022/08/16 05:01:20;;;;;;;0.60;0.60;;;13.20;99.90;;;;;;5096672;28;20024;-77
2022/08/16 05:03:46;;;;;;;0.77;0.77;;;13.20;99.90;;;;;;5114832;28;20024;-77
2022/08/16 05:06:13;;;;;;;0.90;0.77;;;13.20;99.90;;;;;;5114675;28;20034;-77
2022/08/16 05:08:39;;;;;;;3.35;1.05;;;13.20;99.90;;;;;;5114494;28;20104;-76
2022/08/16 05:11:07;;;;;;;1.23;1.15;;;13.30;99.90;;;;;;5114568;28;20063;-76
2022/08/16 05:13:35;;;;;;;1.00;0.90;;;13.30;99.90;;;;;;5114282;28;20515;-77
2022/08/16 05:16:01;;;;;;;1.25;1.13;;;13.40;99.90;;;;;;5096247;28;20028;-78
2022/08/16 05:18:27;;;;;;;3.33;1.33;;;13.50;99.90;;;;;;5096303;28;20020;-77
2022/08/16 05:20:52;;;;;;;2.22;1.42;;;13.60;99.90;;;;;;5114468;28;20020;-78
2022/08/16 05:23:18;;;;;;;1.23;1.13;;;13.70;99.90;;;;;;5114515;28;20076;-77
2022/08/16 05:25:44;;;;;;;4.53;1.95;;;13.70;99.90;;;;;;5095914;28;20069;-76
2022/08/16 05:28:10;;;;;;;1.40;0.70;;;13.70;99.90;;;;;;5114143;28;20031;-76
2022/08/16 05:30:37;;;;;;;0.80;0.80;;;13.80;99.90;;;;;;5114312;28;20055;-76
2022/08/16 05:33:03;;;;;;;1.67;1.00;;;13.90;99.90;;;;;;5113946;28;20023;-78
2022/08/16 05:35:29;;;;;;;1.92;1.83;;;13.90;99.90;;;;;;5096050;28;20028;-77
2022/08/16 05:37:55;;;;;;;0.90;0.90;;;14.00;99.90;;;;;;5114177;28;20026;-77
2022/08/16 05:40:20;;;;;;;2.95;1.15;;;14.10;99.90;;;;;;5096193;28;20422;-77
2022/08/16 05:42:46;;;;;;;2.58;1.35;;;14.20;99.90;;;;;;5114188;28;20035;-77
2022/08/16 05:45:12;;;;;;;1.27;1.23;;;14.30;99.90;;;;;;5095478;28;20016;-78
2022/08/16 05:47:39;;;;;;;1.70;1.55;;;14.30;99.90;;;;;;5113784;28;20020;-76
2022/08/16 05:50:05;;;;;;;1.13;0.77;;;14.40;99.90;;;;;;5113689;28;20380;-78
2022/08/16 05:52:31;;;;;;;0.40;0.40;;;14.50;99.90;;;;;;5113302;28;20038;-77
2022/08/16 05:54:57;;;;;;;0.95;0.82;;;14.70;99.90;;;;;;5095697;28;20023;-76
2022/08/16 05:57:23;;;;;;;0.68;0.63;;;14.70;99.90;;;;;;5113646;28;20028;-76
2022/08/16 05:59:49;;;;;;;1.67;1.35;;;14.80;99.90;;;;;;5095513;28;20502;-78
2022/08/16 06:02:15;;;;;;;1.20;1.20;;;15.00;99.90;;;;;;5113580;28;20062;-79
2022/08/16 06:04:41;;;;;;;2.25;1.23;;;15.10;99.90;;;;;;5095195;28;20015;-78
2022/08/16 06:07:07;;;;;;;43.92;3.20;;;15.20;99.90;;;;;;5113629;28;20024;-79
2022/08/16 06:09:33;;;;;;;4.07;2.05;;;15.20;99.90;;;;;;5113616;28;20032;-77
2022/08/16 06:12:02;;;;;;;2.45;1.10;;;15.30;99.90;;;;;;5113552;28;20499;-77
2022/08/16 06:14:29;;;;;;;1.88;1.65;;;15.40;99.90;;;;;;5095239;28;20039;-77
2022/08/16 06:16:56;;;;;;;5.30;1.92;;;15.60;99.90;;;;;;5113553;28;20016;-76
2022/08/16 06:19:21;;;;;;;2.80;1.33;;;15.70;99.90;;;;;;5095205;28;20027;-78
2022/08/16 06:21:47;;;;;;;1.27;1.05;;;15.80;99.90;;;;;;5113333;28;20049;-76
2022/08/16 06:24:14;;;;;;;1.88;1.42;;;15.90;99.90;;;;;;5113413;28;20027;-78
2022/08/16 06:26:40;;;;;;;1.27;1.27;;;16.00;99.90;;;;;;5095091;28;20027;-78
2022/08/16 06:29:06;;;;;;;2.08;1.85;;;16.10;99.90;;;;;;5094734;28;20374;-78
2022/08/16 06:31:31;;;;;;;2.65;1.92;;;16.10;99.90;;;;;;5113067;28;20031;-78
2022/08/16 06:33:57;;;;;;;2.70;1.88;;;16.20;99.90;;;;;;5095091;28;20035;-78
2022/08/16 06:36:23;;;;;;;1.90;1.50;;;16.30;99.90;;;;;;5094953;28;20016;-76
2022/08/16 06:38:50;;;;;;;1.35;1.25;;;16.50;99.90;;;;;;5113025;28;20028;-78
2022/08/16 06:41:16;;;;;;;1.05;0.88;;;16.60;99.90;;;;;;5094753;28;20072;-76
2022/08/16 06:43:42;;;;;;;3.05;1.30;;;16.70;99.90;;;;;;5094932;28;20027;-76
2022/08/16 06:46:19;;;;;;;2.25;1.23;;;16.90;99.90;;;;;;5095005;28;20567;-77
2022/08/16 06:48:45;;;;;;;2.05;1.95;;;17.00;99.90;;;;;;5113228;28;20023;-76
2022/08/16 06:51:11;;;;;;;4.20;0.80;;;17.10;99.90;;;;;;5094991;28;20077;-77
2022/08/16 06:53:37;;;;;;;1.50;0.68;;;17.20;99.90;;;;;;5112873;28;20042;-78
2022/08/16 06:56:06;;;;;;;6.40;2.83;;;17.30;99.90;;;;;;5113072;28;20024;-78
2022/08/16 06:58:33;;;;;;;0.55;0.55;;;17.30;99.90;;;;;;5113064;28;20089;-78
2022/08/16 07:01:03;;;;;;;1.67;1.58;;;17.40;99.90;;;;;;5113047;28;20420;-78
2022/08/16 07:03:30;;;;;;;1.58;1.15;;;17.60;99.90;;;;;;5096470;28;20118;-78
2022/08/16 07:05:56;;;;;;;0.60;0.60;;;18.30;99.90;;;;;;5116831;28;20384;-76
2022/08/16 07:08:26;;;;;;;1.27;1.20;;;19.60;99.90;;;;;;5116710;28;20031;-76
2022/08/16 07:10:52;;;;;;;0.38;0.38;;;20.50;99.90;;;;;;5098345;28;20052;-76
2022/08/16 07:13:19;;;;;;;0.80;0.80;;;20.70;99.90;;;;;;5116447;28;20510;-77
2022/08/16 07:15:45;;;;;;;0.65;0.65;;;20.70;99.90;;;;;;5116507;28;20016;-76
2022/08/16 07:18:14;;;;;;;1.67;1.25;;;20.50;99.90;;;;;;5116543;28;20146;-77
2022/08/16 07:20:39;;;;;;;0.50;0.50;;;20.20;99.90;;;;;;5116456;28;20019;-78
2022/08/16 07:23:05;;;;;;;11.02;2.22;;;20.10;99.90;;;;;;5116883;28;20016;-78
2022/08/16 07:25:32;;;;;;;5.53;2.25;;;20.30;99.90;;;;;;5098626;28;20027;-77
2022/08/16 07:27:58;;;;;;;1.33;1.23;;;20.60;99.90;;;;;;5116477;28;20019;-79
2022/08/16 07:30:25;;;;;;;1.65;0.73;;;20.70;99.90;;;;;;5116222;28;20144;-78
2022/08/16 07:32:51;;;;;;;3.72;1.35;;;20.50;99.90;;;;;;5116068;28;20023;-78
2022/08/16 07:35:17;;;;;;;3.83;1.48;;;20.30;99.90;;;;;;5116030;28;20038;-78
2022/08/16 07:37:44;;;;;;;5.05;0.73;;;20.10;99.90;;;;;;5116180;28;20020;-79
2022/08/16 07:40:11;;;;;;;0.28;0.28;;;20.10;99.90;;;;;;5116004;28;20059;-78
2022/08/16 07:42:36;;;;;;;1.20;0.60;;;20.10;99.90;;;;;;5117025;28;20196;-78
2022/08/16 07:45:06;;;;;;;1.48;0.60;;;20.20;99.90;;;;;;5116697;28;20476;-78
2022/08/16 07:47:32;;;;;;;0.85;0.85;;;20.40;99.90;;;;;;5097781;28;20097;-78
2022/08/16 07:50:00;;;;;;;0.57;0.57;;;20.60;99.90;;;;;;5115970;28;20464;-78
2022/08/16 07:52:26;;;;;;;1.10;1.00;;;20.40;99.90;;;;;;5097342;28;20030;-77
2022/08/16 07:54:53;;;;;;;1.30;0.40;;;20.40;99.90;;;;;;5116057;28;20070;-77
2022/08/16 07:57:19;;;;;;;0.45;0.45;;;20.40;99.90;;;;;;5115959;28;20414;-77
2022/08/16 07:59:45;;;;;;;1.05;0.73;;;20.60;99.90;;;;;;5115713;28;20483;-77
2022/08/16 08:02:12;;;;;;;1.60;0.98;;;21.10;99.90;;;;;;5097435;28;20023;-77
2022/08/16 08:04:39;;;;;;;0.50;0.50;;;22.20;99.90;;;;;;5097582;28;20111;-77
2022/08/16 08:07:05;;;;;;;0.55;0.55;;;23.50;99.90;;;;;;5097354;28;20020;-77
2022/08/16 08:09:31;;;;;;;2.30;0.82;;;24.80;99.90;;;;;;5115590;28;20022;-78
2022/08/16 08:11:57;;;;;;;1.08;0.95;;;26.00;99.90;;;;;;5097209;28;20408;-78
2022/08/16 08:14:23;;;;;;;1.92;0.50;;;26.90;99.90;;;;;;5115374;28;20434;-78
2022/08/16 08:16:49;;;;;;;0.30;0.30;;;27.70;95.10;;;;;;5115515;28;20020;-78
2022/08/16 08:19:15;;;;;;;1.38;1.20;;;28.50;84.00;;;;;;5115220;28;20019;-77
2022/08/16 08:21:42;;;;;;;0.70;0.60;;;29.00;75.60;;;;;;5115385;28;20068;-78
2022/08/16 08:24:09;;;;;;;0.70;0.70;;;29.50;72.10;;;;;;5096864;28;20494;-77
2022/08/16 08:26:35;;;;;;;0.40;0.40;;;29.80;69.40;;;;;;5096791;28;20050;-77
2022/08/16 08:29:01;;;;;;;0.88;0.88;;;29.50;67.10;;;;;;5115029;28;20098;-78
2022/08/16 08:31:27;;;;;;;0.60;0.60;;;29.60;69.10;;;;;;5115019;28;20387;-78
2022/08/16 08:33:55;;;;;;;0.82;0.52;;;29.60;67.30;;;;;;5115032;28;20492;-78
2022/08/16 08:36:30;;;;;;;0.28;0.28;;;29.80;67.10;;;;;;5114951;28;20030;-77
2022/08/16 08:38:56;;;;;;;0.30;0.30;;;29.70;65.30;;;;;;5114953;28;20019;-78
2022/08/16 08:41:27;;;;;;;0.20;0.20;;;29.70;66.10;;;;;;5096614;28;20165;-78
2022/08/16 08:43:54;;;;;;;0.25;0.25;;;29.70;64.50;;;;;;5096562;28;20020;-78
2022/08/16 08:46:22;;;;;;;0.88;0.88;;;30.10;65.30;;;;;;5114604;28;20437;-79
2022/08/16 08:48:50;;;;;;;2.42;0.50;;;29.80;65.00;;;;;;5114766;28;20053;-78
2022/08/16 08:51:17;;;;;;;0.80;0.52;;;28.70;68.80;;;;;;5096659;28;20123;-77
2022/08/16 08:53:44;;;;;;;1.70;1.13;;;28.80;68.70;;;;;;5114399;28;20043;-77
2022/08/16 08:56:12;;;;;;;3.30;0.52;;;29.10;68.10;;;;;;5114638;28;20107;-77
2022/08/16 08:58:38;;;;;;;0.80;0.38;;;29.50;63.80;;;;;;5096494;28;20037;-77
2022/08/16 09:01:05;;;;;;;0.60;0.60;;;29.60;65.60;;;;;;5114504;28;20020;-77
2022/08/16 09:03:32;;;;;;;0.77;0.70;;;29.40;64.60;;;;;;5096109;28;20031;-78
2022/08/16 09:05:58;;;;;;;0.40;0.40;;;28.20;66.10;;;;;;5114308;28;20028;-77
2022/08/16 09:08:25;;;;;;;0.52;0.40;;;28.30;67.90;;;;;;5114589;28;20541;-78
2022/08/16 09:10:54;;;;;;;0.88;0.88;;;28.40;67.00;;;;;;5114319;28;20012;-77
2022/08/16 09:13:21;;;;;;;1.20;0.57;;;28.30;67.40;;;;;;5114195;28;20038;-76
2022/08/16 09:15:48;;;;;;;0.50;0.50;;;27.10;70.00;;;;;;5096137;28;20037;-78
2022/08/16 09:18:15;;;;;;;0.57;0.57;;;26.80;73.00;;;;;;5095857;28;20020;-78
2022/08/16 09:20:41;;;;;;;0.43;0.40;;;27.30;72.20;;;;;;5114162;28;20080;-77
2022/08/16 09:23:07;;;;;;;0.28;0.28;;;27.80;70.40;;;;;;5095820;28;20024;-78
2022/08/16 09:25:33;;;;;;;0.47;0.20;;;28.20;70.60;;;;;;5113550;28;20508;-78
2022/08/16 09:27:59;;;;;;;0.60;0.60;;;28.30;65.00;;;;;;5095825;28;20384;-77
2022/08/16 09:30:25;;;;;;;0.30;0.30;;;28.50;63.80;;;;;;5095770;28;20051;-78
2022/08/16 09:32:53;;;;;;;0.30;0.30;;;28.80;64.40;;;;;;5095730;28;20038;-78
2022/08/16 09:35:21;;;;;;;0.40;0.30;;;29.30;63.30;;;;;;5113917;28;20098;-79
2022/08/16 09:37:47;;;;;;;0.35;0.35;;;29.30;62.90;;;;;;5095658;28;20023;-79
2022/08/16 09:40:13;;;;;;;1.25;0.73;;;28.90;63.20;;;;;;5095288;28;20084;-78
2022/08/16 09:42:39;;;;;;;1.48;0.90;;;28.40;63.10;;;;;;5113743;28;20073;-79
2022/08/16 09:45:07;;;;;;;0.93;0.43;;;28.20;63.70;;;;;;5113934;28;20023;-79
2022/08/16 09:47:38;;;;;;;0.55;0.55;;;28.40;64.00;;;;;;5113867;28;20024;-78
2022/08/16 09:50:06;;;;;;;0.90;0.77;;;28.70;62.90;;;;;;5095674;28;20114;-79
2022/08/16 09:52:34;;;;;;;0.75;0.75;;;28.20;63.90;;;;;;5113658;28;20026;-79
2022/08/16 09:55:02;;;;;;;1.02;0.30;;;28.30;66.90;;;;;;5113731;28;20038;-78
2022/08/16 09:57:28;;;;;;;0.40;0.40;;;28.40;65.30;;;;;;5113760;28;20047;-78
2022/08/16 09:59:54;;;;;;;0.30;0.30;;;28.50;64.20;;;;;;5113667;28;20055;-77
2022/08/16 10:02:20;;;;;;;0.43;0.40;;;28.00;64.00;;;;;;5113896;28;20093;-77
2022/08/16 10:04:45;;;;;;;0.32;0.32;;;27.90;63.40;;;;;;5113892;28;20027;-78
2022/08/16 10:07:11;;;;;;;0.30;0.30;;;27.90;64.40;;;;;;5095339;28;20030;-79
2022/08/16 10:09:37;;;;;;;2.65;1.52;;;27.80;66.80;;;;;;5113674;28;20102;-82
2022/08/16 10:14:47;;;;;;;1.67;1.08;;;27.50;62.10;;;;;;5113610;28;20043;-78
2022/08/16 10:17:13;;;;;;;0.25;0.25;;;27.00;65.90;;;;;;5094861;28;20380;-79
2022/08/16 10:19:38;;;;;;;0.50;0.50;;;27.20;64.20;;;;;;5113036;28;20049;-78
2022/08/16 10:22:04;;;;;;;1.63;0.68;;;27.30;62.80;;;;;;5094518;28;20031;-77
2022/08/16 10:24:30;;;;;;;0.75;0.75;;;27.20;63.10;;;;;;5112994;28;20028;-77
2022/08/16 10:26:56;;;;;;;0.47;0.47;;;27.20;62.30;;;;;;5112950;28;20090;-78
2022/08/16 10:29:22;;;;;;;0.20;0.20;;;27.30;61.10;;;;;;5094566;28;20020;-78
2022/08/16 10:31:48;;;;;;;0.30;0.30;;;27.50;62.90;;;;;;5094526;28;20135;-79
2022/08/16 10:34:14;;;;;;;0.63;0.63;;;27.90;63.50;;;;;;5112652;28;20535;-79
2022/08/16 10:36:40;;;;;;;0.95;0.55;;;28.40;60.60;;;;;;5113164;28;20019;-79
2022/08/16 10:39:06;;;;;;;0.50;0.50;;;28.90;60.10;;;;;;5116220;28;20372;-78
2022/08/16 10:41:32;;;;;;;1.38;0.38;;;29.40;56.50;;;;;;5099058;28;20036;-78
2022/08/16 10:43:58;;;;;;;0.47;0.47;;;29.50;57.90;;;;;;5117166;28;20028;-77
2022/08/16 10:46:24;;;;;;;0.43;0.43;;;29.70;58.20;;;;;;5117049;28;20019;-77
2022/08/16 10:48:51;;;;;;;2.95;1.20;;;30.10;57.60;;;;;;5098753;28;20095;-78
2022/08/16 10:51:17;;;;;;;0.73;0.73;;;30.60;58.80;;;;;;5098665;28;20177;-78
2022/08/16 10:53:43;;;;;;;0.57;0.38;;;30.90;54.90;;;;;;5116667;28;20050;-78
2022/08/16 10:56:11;;;;;;;0.35;0.35;;;30.70;54.60;;;;;;5098583;28;20019;-76
2022/08/16 10:58:39;;;;;;;0.63;0.30;;;30.80;54.60;;;;;;5098036;28;20024;-78
2022/08/16 11:01:07;;;;;;;0.32;0.30;;;30.70;55.60;;;;;;5116288;28;20020;-78
2022/08/16 11:03:33;;;;;;;0.30;0.30;;;31.00;53.30;;;;;;5098309;28;20472;-77
2022/08/16 11:06:00;;;;;;;0.73;0.40;;;31.00;54.20;;;;;;5116188;28;20024;-78
2022/08/16 11:08:25;;;;;;;0.47;0.47;;;31.30;54.10;;;;;;5097381;28;20073;-79
2022/08/16 11:10:51;;;;;;;5.88;2.17;;;31.00;52.10;;;;;;5097763;28;20023;-78
2022/08/16 11:13:20;;;;;;;1.08;0.65;;;30.40;53.90;;;;;;5097574;28;20028;-77
2022/08/16 11:15:46;;;;;;;;;;;30.00;54.80;;;;;;5116368;28;20054;-78
2022/08/16 11:18:12;;;;;;;0.45;0.45;;;29.80;54.50;;;;;;5097606;28;19971;-79
2022/08/16 11:20:39;;;;;;;2.38;0.70;;;30.10;53.60;;;;;;5097554;28;20031;-78
2022/08/16 11:23:06;;;;;;;0.40;0.40;;;30.20;55.30;;;;;;5115856;28;20087;-80
2022/08/16 11:25:33;;;;;;;2.25;0.80;;;30.30;53.00;;;;;;5115843;28;20068;-78
2022/08/16 11:28:00;;;;;;;0.38;0.38;;;30.80;53.50;;;;;;5115640;28;20020;-78
2022/08/16 11:30:28;;;;;;;0.50;0.50;;;31.40;53.10;;;;;;5097302;28;20031;-78
2022/08/16 11:32:54;;;;;;;0.10;0.10;;;31.40;52.50;;;;;;5115490;28;20027;-77
2022/08/16 11:35:25;;;;;;;0.60;0.57;;;31.10;51.00;;;;;;5097299;28;20039;-79
2022/08/16 11:37:58;;;;;;;0.28;0.28;;;31.10;51.30;;;;;;5097457;28;20026;-75
2022/08/16 11:40:27;;;;;;;0.45;0.35;;;31.30;50.60;;;;;;5115632;28;20106;-78
2022/08/16 11:42:53;;;;;;;0.60;0.60;;;31.50;50.60;;;;;;5097311;28;20076;-77
2022/08/16 11:45:19;;;;;;;0.85;0.70;;;32.00;51.20;;;;;;5115244;28;20436;-78
2022/08/16 11:47:45;;;;;;;0.68;0.47;;;32.50;50.30;;;;;;5096878;28;20023;-77
2022/08/16 11:50:11;;;;;;;0.80;0.63;;;32.90;49.70;;;;;;5114717;28;20098;-78
2022/08/16 11:52:38;;;;;;;0.35;0.20;;;33.50;50.20;;;;;;5115276;28;20027;-78
2022/08/16 11:55:06;;;;;;;0.70;0.30;;;33.90;50.00;;;;;;5097496;28;20118;-79
2022/08/16 11:57:33;;;;;;;0.55;0.55;;;34.10;50.00;;;;;;5115339;28;20531;-78
2022/08/16 11:59:59;;;;;;;0.60;0.60;;;33.70;47.20;;;;;;5097474;28;20042;-80
2022/08/16 12:02:25;;;;;;;0.82;0.82;;;33.30;47.90;;;;;;5097392;28;20110;-79
2022/08/16 12:04:52;;;;;;;1.95;0.40;;;32.40;48.70;;;;;;5115602;28;20024;-78
2022/08/16 12:07:18;;;;;;;0.90;0.90;;;31.80;50.20;;;;;;5115642;28;20054;-78
2022/08/16 12:09:44;;;;;;;0.20;0.20;;;32.30;49.10;;;;;;5097169;28;20031;-78
2022/08/16 12:12:11;;;;;;;0.95;0.45;;;32.30;49.40;;;;;;5115621;28;20081;-77
2022/08/16 12:14:36;;;;;;;0.40;0.40;;;32.90;49.50;;;;;;5097139;28;20063;-77
2022/08/16 12:17:04;;;;;;;0.25;0.25;;;33.30;49.30;;;;;;5115328;28;20080;-78
2022/08/16 12:19:30;;;;;;;0.32;0.30;;;33.60;47.40;;;;;;5097094;28;20023;-78
2022/08/16 12:21:56;;;;;;;0.30;0.30;;;33.10;47.20;;;;;;5115236;28;20020;-76
2022/08/16 12:24:22;;;;;;;1.10;0.50;;;32.70;48.50;;;;;;5115446;28;20051;-77
2022/08/16 12:26:47;;;;;;;0.45;0.45;;;32.60;47.80;;;;;;5115121;28;20105;-79
2022/08/16 12:29:14;;;;;;;0.30;0.30;;;32.50;48.70;;;;;;5097128;28;20026;-78
2022/08/16 12:31:40;;;;;;;0.30;0.30;;;32.50;49.00;;;;;;5116906;28;20088;-78
2022/08/16 12:34:06;;;;;;;0.30;0.30;;;33.30;47.70;;;;;;5115086;28;20396;-77
2022/08/16 12:36:34;;;;;;;0.40;0.40;;;33.80;46.60;;;;;;5115081;28;20486;-76
2022/08/16 12:39:01;;;;;;;2.00;0.70;;;34.40;45.50;;;;;;5115123;28;20047;-76
2022/08/16 12:41:27;;;;;;;0.57;0.57;;;33.70;46.00;;;;;;5115024;28;20486;-77
2022/08/16 12:43:54;;;;;;;0.30;0.30;;;33.80;46.30;;;;;;5114691;28;20114;-78
2022/08/16 12:46:20;;;;;;;0.30;0.30;;;34.10;46.80;;;;;;5114656;28;20019;-78
2022/08/16 12:48:58;;;;;;;0.50;0.50;;;34.30;46.90;;;;;;5114650;28;20523;-75